createdAt,value
2018-10-11T00:01:55.368Z,11.35
2018-10-11T00:04:24.233Z,10.30
2018-10-11T00:06:53.009Z,10.90
2018-10-11T00:09:21.791Z,11.25
2018-10-11T00:11:50.561Z,12.13
2018-10-11T00:14:21.518Z,11.30
2018-10-11T00:16:50.247Z,12.90
2018-10-11T00:19:19.122Z,11.97
2018-10-11T00:21:47.848Z,12.80
2018-10-11T00:24:16.684Z,11.18
2018-10-11T00:26:45.429Z,11.43
2018-10-11T00:29:14.381Z,11.18
2018-10-11T00:31:43.277Z,11.83
2018-10-11T00:34:12.041Z,11.08
2018-10-11T00:36:40.849Z,11.75
2018-10-11T00:39:09.928Z,12.10
2018-10-11T00:41:38.673Z,10.38
2018-10-11T00:44:07.634Z,11.05
2018-10-11T00:46:36.571Z,11.70
2018-10-11T00:49:05.529Z,12.18
2018-10-11T00:51:34.257Z,12.40
2018-10-11T00:54:03.246Z,10.75
2018-10-11T00:56:31.916Z,10.72
2018-10-11T00:59:00.743Z,11.68
2018-10-11T01:01:29.472Z,11.95
2018-10-11T01:03:58.321Z,10.00
2018-10-11T01:06:27.051Z,11.30
2018-10-11T01:08:55.898Z,12.60
2018-10-11T01:11:24.624Z,12.95
2018-10-11T01:13:53.585Z,12.40
2018-10-11T01:21:10.731Z,12.37
2018-10-11T01:23:39.790Z,12.15
2018-10-11T01:26:08.638Z,11.18
2018-10-11T01:28:37.376Z,12.03
2018-10-11T01:31:11.776Z,11.35
2018-10-11T01:33:40.705Z,13.03
2018-10-11T01:36:09.431Z,11.55
2018-10-11T01:38:38.193Z,12.23
2018-10-11T01:41:07.217Z,10.95
2018-10-11T01:43:36.045Z,11.20
2018-10-11T01:46:04.972Z,11.73
2018-10-11T01:48:33.707Z,11.80
2018-10-11T01:51:02.560Z,12.23
2018-10-11T01:53:31.368Z,11.48
2018-10-11T01:56:00.357Z,11.95
2018-10-11T01:58:29.093Z,12.15
2018-10-11T02:00:57.995Z,12.10
2018-10-11T02:03:26.737Z,11.45
2018-10-11T02:05:55.593Z,12.18
2018-10-11T02:08:24.332Z,12.50
2018-10-11T02:10:53.204Z,12.98
2018-10-11T02:13:21.976Z,12.60
2018-10-11T02:15:50.854Z,11.85
2018-10-11T02:18:19.605Z,11.78
2018-10-11T02:20:48.524Z,11.73
2018-10-11T02:23:17.447Z,12.58
2018-10-11T02:25:46.214Z,13.10
2018-10-11T02:28:15.116Z,11.10
2018-10-11T02:30:43.941Z,13.20
2018-10-11T02:34:16.280Z,12.55
2018-10-11T02:36:45.174Z,13.62
2018-10-11T02:39:13.966Z,10.58
2018-10-11T02:41:42.790Z,13.50
2018-10-11T02:44:11.648Z,13.55
2018-10-11T02:46:40.406Z,12.47
2018-10-11T02:49:09.433Z,12.45
2018-10-11T02:51:38.191Z,12.73
2018-10-11T02:54:07.347Z,15.10
2018-10-11T02:56:36.138Z,14.05
2018-10-11T02:59:17.591Z,14.98
2018-10-11T03:01:46.350Z,14.33
2018-10-11T03:04:15.120Z,14.63
2018-10-11T03:06:43.884Z,14.55
2018-10-11T03:09:12.651Z,13.68
2018-10-11T03:11:41.457Z,14.78
2018-10-11T03:14:10.195Z,13.30
2018-10-11T03:16:39.017Z,13.48
2018-10-11T03:19:07.751Z,13.18
2018-10-11T03:21:36.588Z,12.88
2018-10-11T03:24:05.401Z,12.60
2018-10-11T03:26:34.172Z,13.58
2018-10-11T03:29:02.932Z,13.68
2018-10-11T03:31:31.767Z,13.15
2018-10-11T03:34:00.513Z,13.83
2018-10-11T03:36:29.324Z,12.40
2018-10-11T03:38:58.068Z,14.65
2018-10-11T03:41:26.882Z,13.22
2018-10-11T03:43:55.671Z,14.03
2018-10-11T03:46:24.581Z,13.32
2018-10-11T03:48:53.392Z,12.23
2018-10-11T03:51:22.261Z,13.10
2018-10-11T03:53:51.024Z,11.78
2018-10-11T03:56:20.367Z,11.35
2018-10-11T03:58:49.174Z,11.25
2018-10-11T04:01:19.075Z,11.18
2018-10-11T04:03:47.815Z,11.38
2018-10-11T04:06:16.635Z,12.18
2018-10-11T04:08:45.403Z,10.40
2018-10-11T04:11:14.200Z,11.22
2018-10-11T04:13:43.244Z,10.50
2018-10-11T04:16:12.091Z,11.20
2018-10-11T04:18:41.175Z,10.80
2018-10-11T04:21:11.517Z,11.28
2018-10-11T04:23:40.260Z,10.03
2018-10-11T04:26:09.129Z,10.53
2018-10-11T04:28:37.886Z,12.18
2018-10-11T04:31:06.670Z,11.88
2018-10-11T04:33:35.464Z,12.18
2018-10-11T04:36:04.372Z,12.00
2018-10-11T04:38:33.162Z,12.10
2018-10-11T04:41:01.945Z,11.20
2018-10-11T04:43:30.838Z,13.78
2018-10-11T04:45:59.712Z,13.78
2018-10-11T04:48:28.847Z,13.38
2018-10-11T04:50:57.603Z,12.73
2018-10-11T04:53:26.459Z,12.53
2018-10-11T04:55:55.301Z,13.93
2018-10-11T04:58:24.036Z,11.35
2018-10-11T05:00:52.836Z,12.20
2018-10-11T05:03:21.577Z,11.70
2018-10-11T05:05:50.812Z,11.08
2018-10-11T05:08:19.783Z,10.85
2018-10-11T05:10:48.637Z,11.45
2018-10-11T05:13:17.537Z,15.32
2018-10-11T05:15:46.313Z,13.85
2018-10-11T05:18:17.761Z,10.68
2018-10-11T05:20:46.487Z,11.88
2018-10-11T05:23:15.253Z,10.45
2018-10-11T05:25:44.023Z,10.25
2018-10-11T05:28:12.826Z,11.40
2018-10-11T05:30:43.917Z,11.73
2018-10-11T05:33:13.239Z,10.08
2018-10-11T05:35:42.040Z,12.05
2018-10-11T05:38:10.848Z,12.03
2018-10-11T05:40:39.941Z,12.03
2018-10-11T05:43:08.732Z,12.70
2018-10-11T05:45:37.632Z,11.33
2018-10-11T05:48:06.420Z,10.68
2018-10-11T05:50:35.280Z,26.20
2018-10-11T05:53:04.041Z,25.05
2018-10-11T05:55:32.879Z,26.05
2018-10-11T05:58:02.109Z,27.77
2018-10-11T06:00:59.582Z,26.73
2018-10-11T06:03:28.384Z,26.82
2018-10-11T06:05:57.219Z,25.70
2018-10-11T06:08:25.966Z,24.02
2018-10-11T06:10:54.808Z,25.17
2018-10-11T06:13:23.588Z,23.65
2018-10-11T06:15:53.394Z,23.50
2018-10-11T06:18:22.129Z,21.80
2018-10-11T06:20:50.986Z,21.07
2018-10-11T06:23:19.724Z,23.18
2018-10-11T06:25:48.555Z,22.75
2018-10-11T06:28:17.360Z,22.15
2018-10-11T06:30:46.316Z,22.30
2018-10-11T06:33:15.165Z,20.88
2018-10-11T06:35:44.232Z,21.93
2018-10-11T06:38:12.937Z,20.37
2018-10-11T06:40:41.828Z,21.95
2018-10-11T06:43:10.564Z,20.55
2018-10-11T06:45:39.393Z,21.68
2018-10-11T06:48:09.489Z,20.17
2018-10-11T06:50:38.286Z,20.50
2018-10-11T06:53:07.088Z,20.80
2018-10-11T06:55:35.880Z,20.92
2018-10-11T06:58:04.613Z,20.90
2018-10-11T07:00:33.420Z,19.98
2018-10-11T07:03:02.150Z,21.07
2018-10-11T07:05:30.928Z,20.23
2018-10-11T07:07:59.900Z,20.45
2018-10-11T07:10:28.940Z,20.70
2018-10-11T07:12:57.771Z,20.75
2018-10-11T07:15:26.624Z,20.65
2018-10-11T07:17:55.604Z,20.62
2018-10-11T07:20:24.373Z,21.00
2018-10-11T07:22:53.192Z,20.68
2018-10-11T07:25:21.936Z,19.10
2018-10-11T07:27:50.752Z,19.90
2018-10-11T07:30:19.544Z,19.40
2018-10-11T07:32:48.308Z,19.55
2018-10-11T07:35:17.206Z,21.07
2018-10-11T07:37:45.881Z,19.75
2018-10-11T07:40:14.705Z,18.77
2018-10-11T07:42:43.471Z,19.48
2018-10-11T07:45:12.200Z,19.90
2018-10-11T07:47:41.096Z,19.67
2018-10-11T07:50:09.838Z,20.23
2018-10-11T07:52:38.639Z,18.70
2018-10-11T07:55:07.376Z,19.98
2018-10-11T07:57:36.206Z,18.70
2018-10-11T08:00:05.412Z,18.23
2018-10-11T08:02:34.208Z,19.98
2018-10-11T08:05:02.960Z,19.67
2018-10-11T08:07:31.941Z,20.50
2018-10-11T08:10:00.540Z,18.48
2018-10-11T08:12:29.365Z,19.67
2018-10-11T08:14:58.109Z,19.87
2018-10-11T08:17:27.309Z,20.12
2018-10-11T08:19:55.757Z,20.70
2018-10-11T08:22:24.509Z,18.70
2018-10-11T08:24:53.282Z,18.77
2018-10-11T08:27:22.073Z,19.23
2018-10-11T08:29:50.774Z,19.45
2018-10-11T08:32:19.678Z,18.77
2018-10-11T08:34:48.361Z,19.55
2018-10-11T08:37:17.107Z,19.70
2018-10-11T08:39:45.844Z,18.17
2018-10-11T08:42:14.620Z,18.05
2018-10-11T08:44:43.371Z,18.10
2018-10-11T08:47:12.219Z,19.15
2018-10-11T08:49:40.984Z,19.02
2018-10-11T08:52:09.875Z,18.40
2018-10-11T08:54:47.832Z,17.73
2018-10-11T08:57:16.605Z,18.00
2018-10-11T08:59:45.856Z,18.12
2018-10-11T09:02:14.525Z,17.42
2018-10-11T09:04:43.529Z,17.48
2018-10-11T09:07:12.288Z,17.30
2018-10-11T09:09:41.176Z,18.75
2018-10-11T09:12:09.888Z,16.80
2018-10-11T09:14:38.746Z,18.35
2018-10-11T09:17:07.541Z,16.73
2018-10-11T09:19:36.257Z,17.42
2018-10-11T09:22:05.074Z,16.97
2018-10-11T09:24:33.804Z,17.80
2018-10-11T09:27:02.653Z,16.70
2018-10-11T09:29:31.384Z,16.12
2018-10-11T09:32:00.276Z,18.17
2018-10-11T09:34:29.149Z,17.60
2018-10-11T09:36:57.976Z,17.35
2018-10-11T09:39:26.780Z,17.48
2018-10-11T09:41:55.583Z,17.62
2018-10-11T09:44:24.388Z,16.97
2018-10-11T09:46:53.158Z,18.02
2018-10-11T09:49:22.080Z,16.67
2018-10-11T09:51:51.166Z,17.23
2018-10-11T09:54:20.824Z,17.12
2018-10-11T09:57:22.272Z,14.60
2018-10-11T09:59:51.292Z,15.65
2018-10-11T10:02:21.246Z,16.37
2018-10-11T10:04:51.344Z,17.62
2018-10-11T10:07:20.161Z,17.77
2018-10-11T10:09:49.323Z,16.90
2018-10-11T10:12:19.258Z,17.30
2018-10-11T10:14:49.549Z,17.05
2018-10-11T10:17:18.477Z,15.98
2018-10-11T10:27:07.667Z,17.35
2018-10-11T10:29:36.811Z,17.60
2018-10-11T10:32:06.105Z,15.40
2018-10-11T10:34:35.071Z,16.23
2018-10-11T10:37:34.240Z,16.17
2018-10-11T10:40:03.192Z,16.50
2018-10-11T10:42:31.976Z,15.83
2018-10-11T10:45:00.747Z,14.85
2018-10-11T10:47:29.554Z,15.40
2018-10-11T10:49:58.306Z,15.45
2018-10-11T10:52:27.191Z,14.85
2018-10-11T10:54:56.129Z,14.73
2018-10-11T10:57:24.944Z,14.87
2018-10-11T10:59:53.723Z,15.18
2018-10-11T11:02:22.642Z,14.98
2018-10-11T11:04:51.415Z,14.90
2018-10-11T11:07:20.252Z,14.45
2018-10-11T11:09:48.977Z,14.07
2018-10-11T11:12:17.756Z,14.58
2018-10-11T11:14:46.498Z,13.18
2018-10-11T11:17:15.327Z,13.90
2018-10-11T11:19:44.052Z,13.58
2018-10-11T11:23:16.221Z,13.28
2018-10-11T11:25:45.097Z,13.43
2018-10-11T11:28:13.985Z,13.68
2018-10-11T11:30:42.866Z,13.30
2018-10-11T11:33:11.663Z,12.10
2018-10-11T11:35:40.559Z,11.90
2018-10-11T11:38:09.672Z,12.65
2018-10-11T11:40:38.541Z,11.70
2018-10-11T11:43:07.739Z,12.23
2018-10-11T11:45:36.631Z,13.03
2018-10-11T11:48:06.064Z,12.05
2018-10-11T11:50:35.035Z,12.65
2018-10-11T11:53:03.845Z,12.60
2018-10-11T11:55:32.633Z,12.37
2018-10-11T11:58:01.760Z,11.30
2018-10-11T12:00:30.779Z,12.53
2018-10-11T12:03:00.893Z,12.18
2018-10-11T12:05:30.408Z,12.70
2018-10-11T12:07:59.218Z,11.53
2018-10-11T12:10:27.969Z,10.88
2018-10-11T12:12:59.054Z,11.70
2018-10-11T12:15:28.896Z,11.53
2018-10-11T12:17:58.857Z,11.97
2018-10-11T12:20:28.775Z,12.10
2018-10-11T12:22:58.697Z,11.50
2018-10-11T12:25:27.702Z,11.12
2018-10-11T12:27:56.481Z,11.93
2018-10-11T12:30:25.244Z,11.28
2018-10-11T12:32:54.028Z,11.12
2018-10-11T12:35:23.593Z,11.80
2018-10-11T12:37:52.445Z,11.50
2018-10-11T12:40:21.272Z,11.53
2018-10-11T12:42:50.013Z,11.45
2018-10-11T12:45:19.216Z,11.65
2018-10-11T12:47:47.897Z,11.83
2018-10-11T12:50:16.648Z,11.80
2018-10-11T12:52:45.468Z,10.53
2018-10-11T12:55:14.335Z,12.07
2018-10-11T12:57:43.209Z,11.75
2018-10-11T13:00:13.584Z,10.85
2018-10-11T13:02:42.472Z,11.40
2018-10-11T13:05:11.176Z,10.90
2018-10-11T13:07:40.290Z,12.03
2018-10-11T13:10:09.029Z,11.65
2018-10-11T13:12:37.848Z,11.18
2018-10-11T13:15:07.384Z,12.23
2018-10-11T13:17:41.822Z,10.30
2018-10-11T13:20:05.584Z,11.40
2018-10-11T13:22:34.327Z,11.93
2018-10-11T13:25:03.146Z,11.85
2018-10-11T13:27:31.883Z,11.50
2018-10-11T13:30:00.692Z,12.10
2018-10-11T13:32:29.424Z,11.65
2018-10-11T13:34:58.327Z,11.53
2018-10-11T13:37:27.078Z,11.35
2018-10-11T13:39:58.092Z,10.98
2018-10-11T13:42:25.141Z,11.48
2018-10-11T13:44:53.897Z,11.15
2018-10-11T13:47:22.790Z,11.68
2018-10-11T13:49:51.465Z,8.48
2018-10-11T13:52:22.513Z,9.85
2018-10-11T13:54:49.995Z,11.43
2018-10-11T13:57:20.896Z,11.48
2018-10-11T13:59:47.596Z,11.60
2018-10-11T14:02:16.788Z,11.75
2018-10-11T14:04:45.533Z,11.12
2018-10-11T14:07:14.516Z,11.25
2018-10-11T14:09:43.370Z,11.38
2018-10-11T14:12:12.572Z,11.40
2018-10-11T14:14:41.339Z,11.97
2018-10-11T14:17:10.188Z,11.28
2018-10-11T14:19:38.968Z,11.10
2018-10-11T14:22:07.874Z,10.35
2018-10-11T14:24:36.788Z,11.53
2018-10-11T14:27:05.650Z,12.05
2018-10-11T14:29:34.432Z,10.70
2018-10-11T14:32:03.300Z,11.45
2018-10-11T14:34:32.079Z,11.43
2018-10-11T14:37:00.949Z,11.80
2018-10-11T14:39:29.610Z,10.98
2018-10-11T14:41:58.500Z,10.90
2018-10-11T14:44:27.356Z,10.58
2018-10-11T14:46:56.123Z,10.78
2018-10-11T14:49:24.953Z,10.55
2018-10-11T14:51:53.713Z,11.43
2018-10-11T14:54:22.515Z,11.53
2018-10-11T14:56:51.410Z,11.30
2018-10-11T14:59:20.192Z,11.45
2018-10-11T15:01:49.121Z,11.28
2018-10-11T15:04:17.980Z,11.63
2018-10-11T15:06:46.732Z,11.12
2018-10-11T15:09:15.674Z,9.83
2018-10-11T15:11:44.675Z,11.30
2018-10-11T15:14:13.461Z,11.33
2018-10-11T15:16:42.314Z,11.97
2018-10-11T15:19:11.160Z,11.80
2018-10-11T15:21:39.974Z,10.65
2018-10-11T15:24:09.093Z,11.45
2018-10-11T15:26:37.915Z,11.00
2018-10-11T15:29:06.644Z,10.80
2018-10-11T15:31:35.473Z,11.03
2018-10-11T15:34:04.245Z,11.68
2018-10-11T15:36:33.019Z,10.72
2018-10-11T15:39:01.929Z,10.43
2018-10-11T15:41:30.744Z,10.65
2018-10-11T15:43:59.634Z,11.60
2018-10-11T15:46:28.485Z,10.58
2018-10-11T15:48:57.221Z,11.60
2018-10-11T15:51:26.152Z,10.88
2018-10-11T15:53:54.912Z,10.95
2018-10-11T15:56:24.252Z,11.28
2018-10-11T15:58:53.048Z,11.53
2018-10-11T16:01:21.889Z,11.35
2018-10-11T16:03:50.652Z,11.20
2018-10-11T16:06:19.433Z,10.48
2018-10-11T16:08:48.194Z,11.30
2018-10-11T16:11:17.009Z,10.82
2018-10-11T16:13:45.775Z,11.18
2018-10-11T16:16:14.569Z,11.60
2018-10-11T16:18:43.307Z,10.98
2018-10-11T16:21:12.202Z,11.10
2018-10-11T16:23:40.928Z,11.33
2018-10-11T16:26:09.841Z,11.40
2018-10-11T16:28:38.601Z,11.00
2018-10-11T16:31:07.443Z,10.95
2018-10-11T16:33:36.260Z,11.15
2018-10-11T16:36:05.018Z,11.12
2018-10-11T16:38:33.747Z,11.57
2018-10-11T16:41:02.619Z,10.88
2018-10-11T16:43:31.429Z,11.22
2018-10-11T16:46:00.259Z,11.28
2018-10-11T16:48:29.015Z,12.33
2018-10-11T16:50:57.821Z,10.30
2018-10-11T16:53:26.561Z,11.18
2018-10-11T16:55:55.732Z,11.60
2018-10-11T16:58:24.725Z,11.00
2018-10-11T17:00:53.576Z,11.10
2018-10-11T17:03:22.912Z,11.73
2018-10-11T17:05:51.757Z,11.30
2018-10-11T17:08:20.584Z,11.88
2018-10-11T17:10:49.419Z,11.53
2018-10-11T17:13:19.396Z,54.77
2018-10-11T17:15:48.177Z,25.23
2018-10-11T17:18:16.964Z,26.07
2018-10-11T17:20:45.733Z,12.28
2018-10-11T17:23:14.556Z,11.48
2018-10-11T17:25:43.320Z,12.80
2018-10-11T17:28:12.415Z,12.53
2018-10-11T17:30:41.410Z,11.70
2018-10-11T17:33:10.220Z,12.65
2018-10-11T17:35:38.986Z,12.05
2018-10-11T17:38:07.785Z,13.55
2018-10-11T17:40:36.559Z,12.20
2018-10-11T17:43:05.495Z,12.37
2018-10-11T17:45:34.247Z,12.98
2018-10-11T17:48:03.060Z,12.37
2018-10-11T17:50:32.153Z,11.78
2018-10-11T17:53:00.932Z,11.90
2018-10-11T17:55:29.883Z,11.43
2018-10-11T17:57:58.719Z,11.57
2018-10-11T18:00:27.496Z,11.60
2018-10-11T18:02:56.244Z,12.03
2018-10-11T18:05:25.170Z,12.68
2018-10-11T18:07:54.033Z,12.28
2018-10-11T18:10:22.859Z,11.93
2018-10-11T18:12:51.672Z,12.85
2018-10-11T18:15:20.440Z,11.90
2018-10-11T18:17:49.187Z,11.93
2018-10-11T18:20:19.040Z,11.50
2018-10-11T18:22:47.786Z,11.60
2018-10-11T18:25:17.074Z,12.00
2018-10-11T18:27:45.850Z,12.30
2018-10-11T18:30:14.591Z,11.50
2018-10-11T18:32:43.391Z,11.63
2018-10-11T18:35:12.140Z,11.68
2018-10-11T18:37:40.961Z,11.95
2018-10-11T18:40:09.690Z,12.33
2018-10-11T18:42:38.515Z,11.45
2018-10-11T18:45:07.460Z,12.10
2018-10-11T18:47:36.237Z,12.05
2018-10-11T18:50:05.006Z,12.33
2018-10-11T18:52:33.835Z,11.55
2018-10-11T18:55:02.556Z,12.35
2018-10-11T18:57:31.411Z,13.00
2018-10-11T19:00:00.139Z,11.18
2018-10-11T19:02:28.885Z,12.53
2018-10-11T19:04:57.611Z,12.43
2018-10-11T19:07:26.605Z,12.05
2018-10-11T19:09:55.334Z,11.97
2018-10-11T19:12:25.188Z,11.28
2018-10-11T19:14:53.916Z,11.85
2018-10-11T19:17:22.791Z,12.10
2018-10-11T19:19:51.498Z,12.40
2018-10-11T19:22:20.302Z,12.70
2018-10-11T19:24:49.051Z,12.75
2018-10-11T19:27:18.816Z,11.50
2018-10-11T19:29:47.552Z,12.50
2018-10-11T19:32:17.324Z,12.68
2018-10-11T19:34:46.056Z,12.37
2018-10-11T19:37:16.008Z,13.22
2018-10-11T19:39:44.798Z,12.43
2018-10-11T19:42:13.694Z,12.60
2018-10-11T19:44:42.437Z,11.70
2018-10-11T19:47:11.258Z,10.23
2018-10-11T19:49:40.000Z,10.35
2018-10-11T19:52:08.880Z,10.60
2018-10-11T19:54:37.660Z,10.80
2018-10-11T19:57:06.743Z,11.85
2018-10-11T19:59:35.551Z,10.90
2018-10-11T20:02:14.312Z,10.10
2018-10-11T20:05:04.949Z,10.63
2018-10-11T20:07:33.711Z,10.60
2018-10-11T20:10:02.754Z,10.40
2018-10-11T20:12:31.488Z,10.32
2018-10-11T20:15:00.604Z,10.68
2018-10-11T20:17:29.441Z,10.38
2018-10-11T20:19:58.196Z,10.20
2018-10-11T20:22:26.983Z,10.05
2018-10-11T20:24:55.892Z,10.00
2018-10-11T20:27:24.696Z,9.68
2018-10-11T20:29:53.437Z,9.90
2018-10-11T20:32:22.331Z,9.70
2018-10-11T20:34:51.181Z,10.48
2018-10-11T20:37:19.971Z,10.08
2018-10-11T20:39:48.863Z,9.98
2018-10-11T20:42:17.686Z,9.65
2018-10-11T20:44:46.481Z,9.88
2018-10-11T20:47:15.273Z,10.10
2018-10-11T20:49:44.296Z,10.30
2018-10-11T20:52:13.176Z,9.90
2018-10-11T20:54:43.791Z,9.73
2018-10-11T20:57:12.608Z,10.03
2018-10-11T20:59:41.580Z,9.95
2018-10-11T21:02:10.373Z,9.95
2018-10-11T21:04:39.151Z,9.30
2018-10-11T21:07:07.892Z,9.78
2018-10-11T21:09:37.840Z,10.15
2018-10-11T21:12:06.802Z,9.18
2018-10-11T21:14:35.818Z,9.75
2018-10-11T21:17:04.637Z,10.05
2018-10-11T21:19:33.455Z,9.60
2018-10-11T21:22:02.182Z,9.73
2018-10-11T21:24:31.097Z,9.70
2018-10-11T21:26:59.928Z,9.33
2018-10-11T21:32:42.178Z,9.33
2018-10-11T21:35:11.003Z,10.05
2018-10-11T21:37:39.748Z,9.08
2018-10-11T21:40:09.030Z,9.08
2018-10-11T21:42:37.819Z,9.38
2018-10-11T21:45:06.583Z,9.18
2018-10-11T21:47:35.471Z,8.90
2018-10-11T21:50:04.317Z,9.05
2018-10-11T21:52:33.074Z,9.13
2018-10-11T21:55:01.991Z,8.65
2018-10-11T21:57:30.743Z,9.53
2018-10-11T21:59:59.565Z,8.63
2018-10-11T22:02:28.300Z,9.03
2018-10-11T22:04:56.211Z,9.08
2018-10-11T22:07:24.834Z,9.53
2018-10-11T22:09:53.664Z,8.50
2018-10-11T22:12:22.428Z,9.33
2018-10-11T22:14:51.302Z,8.65
2018-10-11T22:17:19.992Z,8.70
2018-10-11T22:19:48.940Z,9.80
2018-10-11T22:22:17.718Z,9.18
2018-10-11T22:24:46.512Z,8.63
2018-10-11T22:27:15.215Z,9.25
2018-10-11T22:29:44.088Z,9.00
2018-10-11T22:32:12.835Z,8.50
2018-10-11T22:34:41.700Z,8.83
2018-10-11T22:37:10.471Z,9.15
2018-10-11T22:39:39.212Z,8.70
2018-10-11T22:42:07.936Z,8.95
2018-10-11T22:44:36.732Z,9.05
2018-10-11T22:47:05.516Z,9.03
2018-10-11T22:49:34.292Z,8.70
2018-10-11T22:52:03.017Z,8.70
2018-10-11T22:54:31.929Z,8.25
2018-10-11T22:57:00.623Z,8.60
2018-10-11T22:59:29.527Z,8.63
2018-10-11T23:01:58.253Z,8.35
2018-10-11T23:04:26.999Z,8.18
2018-10-11T23:06:55.728Z,8.40
2018-10-11T23:09:24.464Z,8.03
2018-10-11T23:11:53.253Z,9.13
2018-10-11T23:14:22.051Z,8.43
2018-10-11T23:16:50.912Z,8.05
2018-10-11T23:19:19.735Z,8.50
2018-10-11T23:21:48.483Z,8.83
2018-10-11T23:24:17.309Z,8.18
2018-10-11T23:26:46.037Z,7.95
2018-10-11T23:29:14.837Z,8.18
2018-10-11T23:31:43.601Z,9.08
2018-10-11T23:34:12.395Z,8.30
2018-10-11T23:36:41.196Z,8.10
2018-10-11T23:39:11.393Z,7.67
2018-10-11T23:41:40.796Z,8.83
2018-10-11T23:44:10.205Z,8.30
2018-10-11T23:46:39.287Z,7.80
2018-10-11T23:49:08.147Z,8.40
2018-10-11T23:51:36.879Z,8.48
2018-10-11T23:54:05.848Z,8.35
2018-10-11T23:56:34.587Z,8.40
2018-10-11T23:59:03.501Z,8.15
